Etusivu
METAR-TAF:

METAR-TAF

Lentoasemat :

Båtsfjord, Norja

Leveyspiiri: 70-38N, Pituuspiiri: 029-44E, korkeus merenpinnasta: 10 m

Tämänhetkinen sää

Tämä raportti tehtiin 56 minuuttia sitten, kello 19.50 UTC
Tuuli 2 kn koillisesta
Lämpötila 9°C
Kosteus 87%
Ilmanpaine 1021 hPa
Näkyvyys 10 km tai enemmän
Hajonneita pilviä 3100 ft:n korkeudessa

METAR: ENBS 211950Z 04002KT 9999 BKN031 09/07 Q1021

Aika: 22:46 (20:46 UTC)


TAF: puuttuu

Säähavainnot ja -ennusteet yli 4000 lentoasemalta (METAR- ja TAF-raportit).

Käytössä olevat sääasemat on merkitty karttaan keltaisilla ja punaisilla pisteillä.

Aseta hiiri pisteen päälle nähdäksesi sääaseman nimen.

Klikkaa sitten nähdäksesi säähavainnot ja -ennusteet.

Kartan vaihtaminen: klikkaa mustalla rastilla varustettuja vihreitä pisteitä, niin voit zoomata sisään; viivalla varustettua vihreää pistettä, niin voit zoomata ulos tai vihreitä nuolia, niin pääset viereisille kartoille.


METAR-TAF: